Time;durP1;ratioP1;P1;durP2;ratioP2;P2;SDS_P1;SDS_P2;PMS_P1;PMS_P2;Temp;Humidity;BMP_temperature;BMP_pressure;BME280_temperature;BME280_humidity;BME280_pressure;Samples;Min_cycle;Max_cycle;Signal;HPM_P1;HPM_P2
2021/03/22 00:01:15;;;;;;;0.83;0.50;;;2.40;99.90;;;;;;5009335;28;20183;-84
2021/03/22 00:03:41;;;;;;;3.53;1.27;;;2.40;99.90;;;;;;5009900;28;20634;-86
2021/03/22 00:06:07;;;;;;;2.60;1.13;;;2.50;99.90;;;;;;5009368;28;20638;-84
2021/03/22 00:08:33;;;;;;;4.10;1.10;;;2.50;99.90;;;;;;5010756;28;20571;-84
2021/03/22 00:10:59;;;;;;;4.30;1.70;;;2.50;99.90;;;;;;5025307;28;20182;-83
2021/03/22 00:13:26;;;;;;;1.70;0.93;;;2.50;99.90;;;;;;5009542;28;20186;-84
2021/03/22 00:15:55;;;;;;;6.50;1.33;;;2.50;99.90;;;;;;5009230;28;20211;-85
2021/03/22 00:18:24;;;;;;;3.77;1.50;;;2.60;99.90;;;;;;5026983;28;20179;-84
2021/03/22 00:20:49;;;;;;;4.17;1.53;;;2.60;99.90;;;;;;5008527;28;20178;-85
2021/03/22 00:23:16;;;;;;;4.80;1.77;;;2.60;99.90;;;;;;5025834;28;20183;-84
2021/03/22 00:25:42;;;;;;;5.47;0.90;;;2.70;99.90;;;;;;5025976;28;20205;-85
2021/03/22 00:28:09;;;;;;;1.50;0.63;;;2.70;99.90;;;;;;5008784;28;20590;-84
2021/03/22 00:30:38;;;;;;;0.80;0.80;;;2.70;99.90;;;;;;5026132;28;20187;-85
2021/03/22 00:33:04;;;;;;;3.50;0.67;;;2.70;99.90;;;;;;5007601;28;20368;-84
2021/03/22 00:35:30;;;;;;;4.13;1.07;;;2.70;99.90;;;;;;5008323;28;20293;-84
2021/03/22 00:37:57;;;;;;;5.17;2.03;;;2.70;99.90;;;;;;5008154;28;20211;-85
2021/03/22 00:40:26;;;;;;;1.77;0.47;;;2.80;99.90;;;;;;5026184;28;20557;-84
2021/03/22 00:42:52;;;;;;;5.80;1.60;;;2.80;99.90;;;;;;5026133;28;20187;-84
2021/03/22 00:45:19;;;;;;;1.57;1.17;;;2.80;99.90;;;;;;5008259;28;20210;-85
2021/03/22 00:47:45;;;;;;;3.93;0.93;;;2.80;99.90;;;;;;5026026;28;20190;-84
2021/03/22 00:50:20;;;;;;;4.07;1.13;;;2.80;99.90;;;;;;5007755;28;20179;-85
2021/03/22 00:52:45;;;;;;;2.20;1.53;;;2.80;99.90;;;;;;5008032;28;20197;-84
2021/03/22 00:55:11;;;;;;;4.13;1.40;;;2.80;99.90;;;;;;5008028;28;20202;-84
2021/03/22 00:57:37;;;;;;;6.07;1.53;;;2.80;99.90;;;;;;5008271;28;20186;-84
2021/03/22 01:00:05;;;;;;;5.63;1.70;;;2.80;99.90;;;;;;5007566;28;20316;-84
2021/03/22 01:02:30;;;;;;;2.00;0.70;;;2.90;99.90;;;;;;5007740;28;20194;-86
2021/03/22 01:05:02;;;;;;;3.33;1.27;;;2.90;99.90;;;;;;5008116;28;20207;-85
2021/03/22 01:07:28;;;;;;;5.10;1.83;;;2.90;99.90;;;;;;5024494;28;20290;-85
2021/03/22 01:09:53;;;;;;;1.33;0.70;;;2.90;99.90;;;;;;5008157;28;20281;-84
2021/03/22 01:12:19;;;;;;;7.43;1.80;;;2.90;99.90;;;;;;5007710;28;20340;-85
2021/03/22 01:14:44;;;;;;;2.10;0.90;;;2.90;99.90;;;;;;5008582;28;20237;-84
2021/03/22 01:17:10;;;;;;;2.53;1.13;;;2.90;99.90;;;;;;5007831;28;20277;-84
2021/03/22 01:19:36;;;;;;;4.23;1.13;;;2.90;99.90;;;;;;5008692;28;20186;-84
2021/03/22 01:22:03;;;;;;;2.40;0.97;;;2.90;99.90;;;;;;5007540;28;20207;-85
2021/03/22 01:24:32;;;;;;;1.33;0.87;;;2.90;99.90;;;;;;5008308;28;20237;-84
2021/03/22 01:27:00;;;;;;;2.43;0.93;;;2.90;99.90;;;;;;5007581;28;20465;-84
2021/03/22 01:29:32;;;;;;;2.77;1.03;;;3.00;99.90;;;;;;5007588;28;20186;-84
2021/03/22 01:32:00;;;;;;;5.60;1.20;;;3.00;99.90;;;;;;5024797;28;20202;-84
2021/03/22 01:34:27;;;;;;;4.67;1.10;;;3.00;99.90;;;;;;5008063;28;20211;-84
2021/03/22 01:36:54;;;;;;;4.53;0.77;;;3.00;99.90;;;;;;5010560;28;20270;-84
2021/03/22 01:39:24;;;;;;;3.30;1.00;;;3.00;99.90;;;;;;5011718;28;20270;-85
2021/03/22 01:42:11;;;;;;;0.90;0.50;;;3.10;99.90;;;;;;5028639;28;20187;-84
2021/03/22 01:45:05;;;;;;;3.10;0.80;;;3.10;99.90;;;;;;5011280;28;20245;-85
2021/03/22 01:47:32;;;;;;;4.63;1.10;;;3.10;99.90;;;;;;5009176;28;20209;-85
2021/03/22 01:50:05;;;;;;;3.63;1.37;;;3.10;99.90;;;;;;5011127;28;20182;-84
2021/03/22 01:52:33;;;;;;;1.93;0.93;;;3.10;99.90;;;;;;5010917;28;20252;-85
2021/03/22 01:54:59;;;;;;;2.87;0.90;;;3.20;99.90;;;;;;5011046;28;20213;-84
2021/03/22 01:57:34;;;;;;;2.47;1.00;;;3.20;99.90;;;;;;5012017;28;20191;-85
2021/03/22 02:00:08;;;;;;;3.83;1.37;;;3.20;99.90;;;;;;5011434;28;20652;-84
2021/03/22 02:02:35;;;;;;;2.67;0.87;;;3.20;99.90;;;;;;5010790;28;20597;-84
2021/03/22 02:05:02;;;;;;;2.83;0.50;;;3.30;99.90;;;;;;5011150;28;20238;-85
2021/03/22 02:07:30;;;;;;;0.83;0.47;;;3.30;99.90;;;;;;5011535;28;20664;-85
2021/03/22 02:09:56;;;;;;;5.30;0.80;;;3.30;99.90;;;;;;5011152;28;20230;-84
2021/03/22 02:12:22;;;;;;;0.60;0.47;;;3.30;99.90;;;;;;5010932;28;20199;-85
2021/03/22 02:14:49;;;;;;;10.00;2.43;;;3.30;99.90;;;;;;5010075;28;20223;-84
2021/03/22 02:17:28;;;;;;;2.43;0.83;;;3.30;99.90;;;;;;5028453;28;20187;-84
2021/03/22 02:20:21;;;;;;;1.63;0.97;;;3.30;99.90;;;;;;5027475;28;20186;-84
2021/03/22 02:23:06;;;;;;;4.33;1.37;;;3.30;99.90;;;;;;5027242;28;20179;-84
2021/03/22 02:25:37;;;;;;;6.80;1.53;;;3.30;99.90;;;;;;5011553;28;20226;-84
2021/03/22 02:28:26;;;;;;;1.83;0.80;;;3.40;99.90;;;;;;5010691;28;20183;-84
2021/03/22 02:31:14;;;;;;;1.47;1.10;;;3.30;99.90;;;;;;5027223;28;20233;-84
2021/03/22 02:34:11;;;;;;;1.27;0.93;;;3.40;99.90;;;;;;5010703;28;20179;-84
2021/03/22 02:36:58;;;;;;;8.37;1.37;;;3.30;99.90;;;;;;5010547;28;20309;-84
2021/03/22 02:39:28;;;;;;;2.50;0.80;;;3.40;99.90;;;;;;5011214;28;20641;-85
2021/03/22 02:41:59;;;;;;;4.73;1.10;;;3.40;99.90;;;;;;5009829;28;20175;-84
2021/03/22 02:44:28;;;;;;;0.73;0.60;;;3.40;99.90;;;;;;5027956;28;20337;-84
2021/03/22 02:47:02;;;;;;;3.83;2.00;;;3.40;99.90;;;;;;5009864;28;20198;-85
2021/03/22 02:49:33;;;;;;;0.90;0.60;;;3.40;99.90;;;;;;5010445;28;20186;-85
2021/03/22 02:52:27;;;;;;;9.00;1.07;;;3.40;99.90;;;;;;5026392;28;20290;-84
2021/03/22 02:55:38;;;;;;;1.60;0.37;;;3.40;99.90;;;;;;5028191;28;20661;-85
2021/03/22 02:58:12;;;;;;;9.40;1.50;;;3.50;99.90;;;;;;4991140;28;20183;-85
2021/03/22 03:00:44;;;;;;;4.80;1.43;;;3.50;99.90;;;;;;5026345;28;20222;-84
2021/03/22 03:03:13;;;;;;;5.13;1.07;;;3.40;99.90;;;;;;5010003;28;20183;-85
2021/03/22 03:05:39;;;;;;;1.10;0.57;;;3.40;99.90;;;;;;5010184;28;20210;-85
2021/03/22 03:08:10;;;;;;;2.27;0.63;;;3.40;99.90;;;;;;5009905;28;20187;-85
2021/03/22 03:10:36;;;;;;;1.60;0.83;;;3.30;99.90;;;;;;5010001;28;20202;-84
2021/03/22 03:13:03;;;;;;;5.70;1.37;;;3.30;99.90;;;;;;5009479;28;20291;-84
2021/03/22 03:15:28;;;;;;;0.70;0.60;;;3.40;99.90;;;;;;5009563;28;20321;-84
2021/03/22 03:17:54;;;;;;;2.70;0.57;;;3.40;99.90;;;;;;5027299;28;20254;-84
2021/03/22 03:20:24;;;;;;;3.13;0.50;;;3.40;99.90;;;;;;5009835;28;20198;-85
2021/03/22 03:22:50;;;;;;;4.83;1.30;;;3.50;99.90;;;;;;5010429;28;20752;-84
2021/03/22 03:25:17;;;;;;;1.17;0.30;;;3.40;99.90;;;;;;5009112;28;20226;-84
2021/03/22 03:27:42;;;;;;;3.07;1.27;;;3.40;99.90;;;;;;5009208;28;20273;-85
2021/03/22 03:30:11;;;;;;;3.00;0.47;;;3.40;99.90;;;;;;5008847;28;20274;-84
2021/03/22 03:32:37;;;;;;;7.60;0.90;;;3.40;99.90;;;;;;5009175;28;20255;-85
2021/03/22 03:35:06;;;;;;;6.57;1.57;;;3.40;99.90;;;;;;5009535;28;20207;-84
2021/03/22 03:37:31;;;;;;;3.80;0.70;;;3.40;99.90;;;;;;5009689;28;20187;-84
2021/03/22 03:39:57;;;;;;;3.30;1.00;;;3.40;99.90;;;;;;5026855;28;20217;-84
2021/03/22 03:42:23;;;;;;;2.07;0.97;;;3.40;99.90;;;;;;5026819;28;20191;-85
2021/03/22 03:44:48;;;;;;;4.30;2.53;;;3.40;99.90;;;;;;5009249;28;20207;-85
2021/03/22 03:47:14;;;;;;;2.73;0.70;;;3.50;99.90;;;;;;5009031;28;20191;-84
2021/03/22 03:49:39;;;;;;;3.63;1.23;;;3.50;99.90;;;;;;5009113;28;20175;-84
2021/03/22 03:52:05;;;;;;;2.63;1.70;;;3.40;99.90;;;;;;5008882;28;20230;-85
2021/03/22 03:54:32;;;;;;;4.63;2.00;;;3.40;99.90;;;;;;5009103;28;20254;-84
2021/03/22 03:56:59;;;;;;;2.27;1.07;;;3.40;99.90;;;;;;5008668;28;20187;-85
2021/03/22 03:59:24;;;;;;;6.10;1.40;;;3.30;99.90;;;;;;5008743;28;20175;-84
2021/03/22 04:01:50;;;;;;;0.80;0.80;;;3.40;99.90;;;;;;5008619;28;20183;-84
2021/03/22 04:04:16;;;;;;;5.00;1.63;;;3.40;99.90;;;;;;5009250;28;20226;-84
2021/03/22 04:06:41;;;;;;;3.80;0.77;;;3.30;99.90;;;;;;5008882;28;20555;-84
2021/03/22 04:09:10;;;;;;;1.47;0.63;;;3.40;99.90;;;;;;5027052;28;20270;-84
2021/03/22 04:11:39;;;;;;;3.77;1.87;;;3.30;99.90;;;;;;5026538;28;20300;-84
2021/03/22 04:14:07;;;;;;;1.33;0.87;;;3.20;99.90;;;;;;5026946;28;20553;-86
2021/03/22 04:16:34;;;;;;;3.17;0.83;;;3.20;99.90;;;;;;5024992;28;20183;-84
2021/03/22 04:19:00;;;;;;;5.00;1.07;;;3.10;99.90;;;;;;5009167;28;20906;-85
2021/03/22 04:21:29;;;;;;;2.27;1.47;;;2.90;99.90;;;;;;5008868;28;20189;-84
2021/03/22 04:23:56;;;;;;;3.10;1.30;;;2.80;99.90;;;;;;5008487;28;20329;-84
2021/03/22 04:26:23;;;;;;;0.87;0.77;;;2.80;99.90;;;;;;5026623;28;20194;-85
2021/03/22 04:28:49;;;;;;;4.13;0.87;;;2.70;99.90;;;;;;5008620;28;20269;-84
2021/03/22 04:31:16;;;;;;;0.93;0.93;;;2.60;99.90;;;;;;5008263;28;20229;-85
2021/03/22 04:33:42;;;;;;;5.97;1.77;;;2.60;99.90;;;;;;5008885;28;20175;-85
2021/03/22 04:36:09;;;;;;;6.57;1.57;;;2.50;99.90;;;;;;5007849;28;20999;-84
2021/03/22 04:38:35;;;;;;;1.77;0.97;;;2.40;99.90;;;;;;5023486;28;20290;-84
2021/03/22 04:41:01;;;;;;;2.10;0.83;;;2.40;99.90;;;;;;5008472;28;20182;-85
2021/03/22 04:43:27;;;;;;;4.17;1.50;;;2.40;99.90;;;;;;5008616;28;20313;-85
2021/03/22 04:45:52;;;;;;;2.83;0.77;;;2.20;99.90;;;;;;5007687;28;20267;-85
2021/03/22 04:48:18;;;;;;;1.00;0.70;;;2.20;99.90;;;;;;5008690;28;20179;-84
2021/03/22 04:50:44;;;;;;;3.40;1.17;;;2.10;99.90;;;;;;5008009;28;20206;-84
2021/03/22 04:53:10;;;;;;;2.53;0.87;;;1.90;99.90;;;;;;5008445;28;20213;-85
2021/03/22 04:55:36;;;;;;;3.90;1.23;;;1.90;99.90;;;;;;5026156;28;20214;-85
2021/03/22 04:58:02;;;;;;;2.07;1.27;;;1.80;99.90;;;;;;5025814;28;20179;-83
2021/03/22 05:00:38;;;;;;;7.00;1.50;;;1.80;99.90;;;;;;5026501;28;20644;-85
2021/03/22 05:03:04;;;;;;;1.00;0.60;;;1.80;99.90;;;;;;5008138;28;20182;-84
2021/03/22 05:05:30;;;;;;;3.90;0.90;;;1.70;99.90;;;;;;5025351;28;20208;-85
2021/03/22 05:07:55;;;;;;;0.77;0.60;;;1.80;99.90;;;;;;5007833;28;20179;-83
2021/03/22 05:10:28;;;;;;;7.87;1.07;;;1.80;99.90;;;;;;5010259;28;20610;-84
2021/03/22 05:12:53;;;;;;;1.87;1.17;;;1.90;99.90;;;;;;5011749;28;20221;-85
2021/03/22 05:15:20;;;;;;;2.93;1.63;;;1.70;99.90;;;;;;5012356;28;20585;-86
2021/03/22 05:17:46;;;;;;;2.93;1.43;;;1.80;99.90;;;;;;5028440;28;20182;-85
2021/03/22 05:20:22;;;;;;;1.17;0.77;;;1.80;99.90;;;;;;5012509;28;20198;-84
2021/03/22 05:22:48;;;;;;;7.00;1.10;;;1.90;99.90;;;;;;5011716;28;20186;-84
2021/03/22 05:25:15;;;;;;;4.70;2.07;;;1.80;99.90;;;;;;5012329;28;20240;-85
2021/03/22 05:27:41;;;;;;;3.37;1.37;;;1.70;99.90;;;;;;5011840;28;20179;-85
2021/03/22 05:30:08;;;;;;;1.97;1.10;;;1.70;99.90;;;;;;5028693;28;20252;-86
2021/03/22 05:32:35;;;;;;;2.90;1.40;;;1.60;99.90;;;;;;5011481;28;20202;-84
2021/03/22 05:35:03;;;;;;;6.67;2.53;;;1.60;99.90;;;;;;5011709;28;20195;-84
2021/03/22 05:37:29;;;;;;;0.90;0.70;;;1.80;99.90;;;;;;5027605;28;20175;-86
2021/03/22 05:39:55;;;;;;;6.47;1.50;;;1.90;99.90;;;;;;5011897;28;20179;-85
2021/03/22 05:42:54;;;;;;;2.10;1.07;;;1.80;99.90;;;;;;5011247;28;20182;-86
2021/03/22 05:45:27;;;;;;;3.80;1.57;;;1.80;99.90;;;;;;5012546;28;20198;-85
2021/03/22 05:48:20;;;;;;;9.87;2.83;;;1.90;99.90;;;;;;5011814;28;20182;-83
2021/03/22 05:51:24;;;;;;;4.50;1.20;;;2.00;99.90;;;;;;5011227;28;20270;-84
2021/03/22 05:53:53;;;;;;;2.67;1.37;;;1.90;99.90;;;;;;4988363;28;20221;-85
2021/03/22 05:56:40;;;;;;;6.70;1.50;;;1.90;99.90;;;;;;5011267;28;20218;-85
2021/03/22 05:59:14;;;;;;;1.70;1.00;;;1.90;99.90;;;;;;5011667;28;20206;-83
2021/03/22 06:01:48;;;;;;;1.50;1.10;;;1.90;99.90;;;;;;5010903;28;20182;-84
2021/03/22 06:04:32;;;;;;;6.70;1.63;;;1.80;99.90;;;;;;5009877;28;20199;-85
2021/03/22 06:06:58;;;;;;;2.13;1.23;;;1.90;99.90;;;;;;5027696;28;20191;-83
2021/03/22 06:09:27;;;;;;;4.93;1.50;;;1.90;99.90;;;;;;5010116;28;20202;-84
2021/03/22 06:12:23;;;;;;;6.47;1.50;;;1.90;99.90;;;;;;5009535;28;20203;-84
2021/03/22 06:15:20;;;;;;;1.43;1.30;;;1.90;99.90;;;;;;5010056;28;20676;-85
2021/03/22 06:17:55;;;;;;;1.77;0.97;;;2.00;99.90;;;;;;5010001;28;20191;-85
2021/03/22 06:20:38;;;;;;;7.63;1.87;;;2.10;99.90;;;;;;5027437;28;20261;-83
2021/03/22 06:23:43;;;;;;;4.23;0.90;;;2.10;99.90;;;;;;5008732;28;20185;-85
2021/03/22 06:26:32;;;;;;;1.20;0.80;;;2.30;99.90;;;;;;5009486;28;20719;-84
2021/03/22 06:29:03;;;;;;;5.83;1.27;;;2.50;99.90;;;;;;5000067;28;20278;-85
2021/03/22 06:31:29;;;;;;;2.00;1.03;;;2.50;99.90;;;;;;5007924;28;20673;-84
2021/03/22 06:34:05;;;;;;;3.17;1.60;;;2.60;99.90;;;;;;5009509;28;20194;-84
2021/03/22 06:36:31;;;;;;;4.30;1.00;;;2.70;99.90;;;;;;5009343;28;20186;-85
2021/03/22 06:38:59;;;;;;;2.07;1.10;;;2.90;99.90;;;;;;5009448;28;20183;-84
2021/03/22 06:41:43;;;;;;;2.87;1.03;;;3.00;99.90;;;;;;5009347;28;20190;-83
2021/03/22 06:44:09;;;;;;;2.60;1.10;;;3.10;99.90;;;;;;5008492;28;20179;-85
2021/03/22 06:46:51;;;;;;;2.90;1.23;;;3.20;99.90;;;;;;5009329;28;20256;-85
2021/03/22 06:49:23;;;;;;;4.73;1.27;;;3.20;99.90;;;;;;5009132;28;20194;-85
2021/03/22 06:52:02;;;;;;;2.73;1.37;;;3.40;99.90;;;;;;5008363;28;20217;-85
2021/03/22 06:54:50;;;;;;;5.93;1.20;;;3.60;99.90;;;;;;5008486;28;20272;-85
2021/03/22 06:57:24;;;;;;;2.07;1.23;;;3.70;99.90;;;;;;5007231;28;20186;-85
2021/03/22 07:00:12;;;;;;;1.97;1.50;;;3.90;99.90;;;;;;5008193;28;20182;-85
2021/03/22 07:03:00;;;;;;;4.13;1.43;;;3.90;99.90;;;;;;5008123;28;20187;-85
2021/03/22 07:05:26;;;;;;;3.03;0.90;;;4.00;99.90;;;;;;5008893;28;20210;-85
2021/03/22 07:08:04;;;;;;;1.40;1.23;;;4.20;99.90;;;;;;5008496;28;20191;-84
2021/03/22 07:10:55;;;;;;;2.10;1.20;;;4.30;99.90;;;;;;5009051;28;20186;-85
2021/03/22 07:13:27;;;;;;;2.63;1.07;;;4.40;99.90;;;;;;5005618;28;20587;-85
2021/03/22 07:15:57;;;;;;;4.03;1.00;;;4.60;99.90;;;;;;5026236;28;20775;-84
2021/03/22 07:18:28;;;;;;;6.07;1.90;;;4.60;99.90;;;;;;5008378;28;20203;-84
2021/03/22 07:20:57;;;;;;;2.77;1.40;;;4.80;99.90;;;;;;5025554;28;20175;-84
2021/03/22 07:23:30;;;;;;;1.30;0.90;;;5.00;99.90;;;;;;5008703;28;20175;-83
2021/03/22 07:26:02;;;;;;;3.73;1.87;;;5.00;99.90;;;;;;5008927;28;20202;-85
2021/03/22 07:28:53;;;;;;;2.90;1.63;;;5.10;99.90;;;;;;5026648;28;20439;-85
2021/03/22 07:31:53;;;;;;;2.10;1.53;;;5.20;99.90;;;;;;5026311;28;20629;-85
2021/03/22 07:34:32;;;;;;;3.40;1.63;;;5.20;99.90;;;;;;4980806;28;20241;-84
2021/03/22 07:37:23;;;;;;;12.87;2.00;;;5.30;99.90;;;;;;5005071;28;20182;-85
2021/03/22 07:40:10;;;;;;;4.80;1.60;;;5.40;99.90;;;;;;5004869;28;20269;-85
2021/03/22 07:43:06;;;;;;;2.47;1.57;;;5.40;99.90;;;;;;5004543;28;20289;-85
2021/03/22 07:45:57;;;;;;;2.80;1.20;;;5.50;99.90;;;;;;5023928;28;20210;-84
2021/03/22 07:48:40;;;;;;;1.13;0.80;;;5.40;99.90;;;;;;5023126;28;20749;-85
2021/03/22 07:51:28;;;;;;;1.60;1.27;;;5.20;99.90;;;;;;5026028;28;20179;-84
2021/03/22 07:54:01;;;;;;;1.50;1.23;;;5.20;99.90;;;;;;5007136;28;20178;-84
2021/03/22 07:56:41;;;;;;;4.17;2.00;;;5.20;99.90;;;;;;5008452;28;20189;-85
2021/03/22 07:59:26;;;;;;;2.83;0.93;;;5.30;99.90;;;;;;5007419;28;20182;-83
2021/03/22 08:01:55;;;;;;;1.60;1.17;;;5.30;99.90;;;;;;5024752;28;20258;-85
2021/03/22 08:04:39;;;;;;;2.23;1.87;;;5.40;99.90;;;;;;5006948;28;20198;-85
2021/03/22 08:07:36;;;;;;;3.63;2.17;;;5.20;99.90;;;;;;5023661;28;20270;-86
2021/03/22 08:10:40;;;;;;;5.30;1.93;;;5.20;99.90;;;;;;5007198;28;20704;-85
2021/03/22 08:13:35;;;;;;;5.20;1.67;;;5.20;99.90;;;;;;5004142;28;20214;-84
2021/03/22 08:16:26;;;;;;;1.50;0.67;;;5.10;99.90;;;;;;4946748;28;20221;-84
2021/03/22 08:18:54;;;;;;;1.37;1.10;;;5.10;99.90;;;;;;4962797;28;20183;-84
2021/03/22 08:21:43;;;;;;;3.33;1.50;;;5.10;99.90;;;;;;5023659;28;20192;-85
2021/03/22 08:24:25;;;;;;;1.10;1.00;;;5.20;99.90;;;;;;5005726;28;20179;-85
2021/03/22 08:26:59;;;;;;;6.00;2.17;;;5.40;99.90;;;;;;5006321;28;20175;-85
2021/03/22 08:29:35;;;;;;;2.03;1.03;;;5.50;99.90;;;;;;5006683;28;20179;-85
2021/03/22 08:32:39;;;;;;;4.20;1.13;;;5.50;99.90;;;;;;5022142;28;20206;-86
2021/03/22 08:35:20;;;;;;;1.97;1.00;;;5.70;99.90;;;;;;5006808;28;20207;-87
2021/03/22 08:38:14;;;;;;;5.03;2.00;;;5.70;99.90;;;;;;5008147;28;20189;-84
2021/03/22 08:40:41;;;;;;;8.50;2.77;;;5.90;99.90;;;;;;5008880;28;20174;-84
2021/03/22 08:43:50;;;;;;;3.67;1.50;;;6.20;99.90;;;;;;5008364;28;20183;-84
2021/03/22 08:46:18;;;;;;;4.50;1.53;;;6.10;99.90;;;;;;5007425;28;20209;-86
2021/03/22 08:48:44;;;;;;;3.60;2.07;;;6.30;99.90;;;;;;5008497;28;20534;-84
2021/03/22 08:51:25;;;;;;;3.07;1.97;;;6.60;99.90;;;;;;5013365;28;20213;-85
2021/03/22 08:53:53;;;;;;;4.90;2.20;;;6.70;99.90;;;;;;5028236;28;20182;-85
2021/03/22 08:56:42;;;;;;;3.13;2.17;;;6.70;99.90;;;;;;5014332;28;20221;-84
2021/03/22 08:59:18;;;;;;;1.67;0.93;;;6.80;99.90;;;;;;5010058;28;20182;-84
2021/03/22 09:01:44;;;;;;;8.47;2.67;;;6.70;99.90;;;;;;5011987;28;20247;-84
2021/03/22 09:04:16;;;;;;;2.57;1.27;;;6.90;99.90;;;;;;5027310;28;20182;-83
2021/03/22 09:07:11;;;;;;;2.43;1.43;;;6.80;99.90;;;;;;5009421;28;20194;-84
2021/03/22 09:09:40;;;;;;;5.47;2.07;;;6.80;99.90;;;;;;4997540;28;20678;-83
2021/03/22 09:12:25;;;;;;;1.70;1.40;;;6.90;99.90;;;;;;5008548;28;20206;-83
2021/03/22 09:14:52;;;;;;;4.07;1.90;;;6.90;99.90;;;;;;5008652;28;20869;-84
2021/03/22 09:17:45;;;;;;;2.60;1.17;;;6.80;99.90;;;;;;5026187;28;20175;-86
2021/03/22 09:20:16;;;;;;;5.13;1.57;;;6.90;99.90;;;;;;5008527;28;20297;-84
2021/03/22 09:23:00;;;;;;;4.47;1.53;;;7.20;99.90;;;;;;5008236;28;20179;-84
2021/03/22 09:25:45;;;;;;;2.00;1.20;;;7.60;99.90;;;;;;5008446;28;20213;-84
2021/03/22 09:28:21;;;;;;;3.03;1.03;;;7.70;99.90;;;;;;5008988;28;20185;-87
2021/03/22 09:30:57;;;;;;;2.90;1.40;;;7.40;99.90;;;;;;5008828;28;20194;-85
2021/03/22 09:33:59;;;;;;;3.10;1.40;;;7.20;99.90;;;;;;5008677;28;20221;-85
2021/03/22 09:36:33;;;;;;;2.83;1.33;;;7.40;99.90;;;;;;5009265;28;20254;-85
2021/03/22 09:39:03;;;;;;;2.07;1.27;;;7.50;99.90;;;;;;5026078;28;20260;-85
2021/03/22 09:42:07;;;;;;;1.80;0.80;;;7.50;99.90;;;;;;5024958;28;20183;-86
2021/03/22 09:44:57;;;;;;;2.93;1.50;;;7.60;99.90;;;;;;5024466;28;20265;-85
2021/03/22 09:47:30;;;;;;;1.73;0.90;;;7.90;99.90;;;;;;5025264;28;20190;-84
2021/03/22 09:50:04;;;;;;;1.67;1.37;;;8.20;99.90;;;;;;5025197;28;21054;-85
2021/03/22 09:53:00;;;;;;;1.13;0.90;;;8.30;99.90;;;;;;5007511;28;20397;-84
2021/03/22 09:55:26;;;;;;;4.93;1.30;;;8.50;99.90;;;;;;5006917;28;20226;-85
2021/03/22 09:57:56;;;;;;;2.27;0.90;;;8.70;99.90;;;;;;5010148;28;20533;-86
2021/03/22 10:00:47;;;;;;;1.63;1.30;;;8.80;99.90;;;;;;5011171;28;20182;-84
2021/03/22 10:03:19;;;;;;;2.10;0.77;;;8.90;99.90;;;;;;5010583;28;20183;-84
2021/03/22 10:05:48;;;;;;;3.93;1.47;;;8.70;99.90;;;;;;5011179;28;20207;-84
2021/03/22 10:08:22;;;;;;;1.00;0.53;;;8.60;99.90;;;;;;5028530;28;20182;-84
2021/03/22 10:10:54;;;;;;;2.13;0.67;;;8.60;99.90;;;;;;5011584;28;20795;-84
2021/03/22 10:13:28;;;;;;;1.53;0.77;;;8.20;99.90;;;;;;5010147;28;20205;-84
2021/03/22 10:15:58;;;;;;;2.73;1.10;;;8.50;99.90;;;;;;5009485;28;20275;-83
2021/03/22 10:18:37;;;;;;;2.97;1.00;;;8.50;99.90;;;;;;5008770;28;20707;-84
2021/03/22 10:21:14;;;;;;;1.40;1.10;;;8.20;99.90;;;;;;5008386;28;20859;-84
2021/03/22 10:24:01;;;;;;;1.60;1.27;;;8.00;99.90;;;;;;5008028;28;20736;-84
2021/03/22 10:26:37;;;;;;;2.80;0.80;;;8.10;99.90;;;;;;5027979;28;20281;-79
2021/03/22 10:29:25;;;;;;;1.30;1.00;;;8.00;99.90;;;;;;5009172;28;20704;-81
2021/03/22 10:32:09;;;;;;;3.90;1.27;;;7.70;99.90;;;;;;5008691;28;20271;-79
2021/03/22 10:34:55;;;;;;;1.70;0.70;;;7.70;99.90;;;;;;5009531;28;20261;-81
2021/03/22 10:37:54;;;;;;;1.60;1.17;;;8.00;99.90;;;;;;5009034;28;20177;-81
2021/03/22 10:40:38;;;;;;;2.13;1.17;;;8.20;99.90;;;;;;5008139;28;20994;-80
2021/03/22 10:43:06;;;;;;;2.50;1.10;;;8.30;99.90;;;;;;5026432;28;20620;-79
2021/03/22 10:45:34;;;;;;;1.60;1.00;;;8.60;99.90;;;;;;5026545;28;20207;-80
2021/03/22 10:48:01;;;;;;;2.23;1.17;;;8.90;99.90;;;;;;5009276;28;20587;-79
2021/03/22 10:50:30;;;;;;;1.27;0.97;;;8.90;99.90;;;;;;5006912;28;20248;-78
2021/03/22 10:53:09;;;;;;;1.97;1.07;;;8.80;99.90;;;;;;5025042;28;20322;-77
2021/03/22 10:55:35;;;;;;;1.97;1.23;;;8.80;99.90;;;;;;5024365;28;20199;-77
2021/03/22 10:58:05;;;;;;;2.03;1.23;;;9.00;99.90;;;;;;5024711;28;20175;-78
2021/03/22 11:00:43;;;;;;;1.97;1.00;;;9.30;99.90;;;;;;5007461;28;20194;-77
2021/03/22 11:03:09;;;;;;;2.10;0.90;;;9.10;99.90;;;;;;5007916;28;20182;-78
2021/03/22 11:05:42;;;;;;;2.87;1.23;;;9.30;99.90;;;;;;5023483;28;20202;-78
2021/03/22 11:08:21;;;;;;;2.80;1.67;;;9.40;99.90;;;;;;5025469;28;20187;-85
2021/03/22 11:10:48;;;;;;;1.27;1.17;;;9.10;99.90;;;;;;5026589;28;20174;-84
2021/03/22 11:13:23;;;;;;;3.00;1.10;;;9.10;99.90;;;;;;5007517;28;20213;-85
2021/03/22 11:15:49;;;;;;;2.20;0.90;;;8.90;99.90;;;;;;5026190;28;20215;-84
2021/03/22 11:18:19;;;;;;;2.57;1.13;;;8.90;99.90;;;;;;5026484;28;20179;-85
2021/03/22 11:20:53;;;;;;;2.63;0.80;;;8.90;99.90;;;;;;5024944;28;20179;-86
2021/03/22 11:23:40;;;;;;;2.80;1.43;;;9.10;99.90;;;;;;5008664;28;20187;-85
2021/03/22 11:26:27;;;;;;;2.50;1.50;;;9.20;99.90;;;;;;5008193;28;20597;-85
2021/03/22 11:29:20;;;;;;;1.33;0.80;;;9.20;99.90;;;;;;5006762;28;20179;-85
2021/03/22 11:31:49;;;;;;;2.10;0.63;;;9.50;99.90;;;;;;5023574;28;20701;-85
2021/03/22 11:34:20;;;;;;;1.10;0.70;;;9.20;99.90;;;;;;5008735;28;20194;-84
2021/03/22 11:36:46;;;;;;;2.50;0.60;;;9.30;99.90;;;;;;5008709;28;20175;-84
2021/03/22 11:39:23;;;;;;;0.97;0.63;;;9.50;99.90;;;;;;5008491;28;20672;-84
2021/03/22 11:41:55;;;;;;;1.67;0.70;;;9.30;99.90;;;;;;5007493;28;20197;-83
2021/03/22 11:44:30;;;;;;;0.90;0.67;;;9.30;99.90;;;;;;5008259;28;20234;-84
2021/03/22 11:47:23;;;;;;;1.53;0.87;;;9.40;99.90;;;;;;5008101;28;20189;-83
2021/03/22 11:49:51;;;;;;;1.50;0.93;;;9.50;99.90;;;;;;5008409;28;20182;-83
2021/03/22 11:52:25;;;;;;;1.97;1.10;;;9.70;99.90;;;;;;5024822;28;20207;-85
2021/03/22 11:55:24;;;;;;;1.57;1.17;;;9.80;99.90;;;;;;5024956;28;20202;-84
2021/03/22 11:57:51;;;;;;;2.67;1.20;;;9.90;99.90;;;;;;5007122;28;20182;-84
2021/03/22 12:00:19;;;;;;;1.13;0.70;;;9.50;99.90;;;;;;5007614;28;20183;-84
2021/03/22 12:02:51;;;;;;;1.93;1.27;;;9.50;99.90;;;;;;5006213;28;20182;-79
2021/03/22 12:05:46;;;;;;;4.93;1.47;;;9.80;99.90;;;;;;5022974;28;20561;-78
2021/03/22 12:08:46;;;;;;;3.13;1.13;;;10.00;99.90;;;;;;5022835;28;20190;-78
2021/03/22 12:11:23;;;;;;;1.00;0.80;;;10.20;99.90;;;;;;4979475;28;20269;-77
2021/03/22 12:13:52;;;;;;;2.10;0.70;;;10.30;99.90;;;;;;5005098;28;20302;-76
2021/03/22 12:16:31;;;;;;;2.07;0.60;;;10.20;99.60;;;;;;5022919;28;20202;-81
2021/03/22 12:18:59;;;;;;;2.30;0.60;;;10.10;99.90;;;;;;5006412;28;20179;-83
2021/03/22 12:21:26;;;;;;;1.07;0.97;;;10.20;99.90;;;;;;5008192;28;20171;-83
2021/03/22 12:23:53;;;;;;;0.90;0.63;;;10.40;99.90;;;;;;5007143;28;20175;-85
2021/03/22 12:26:20;;;;;;;0.60;0.50;;;10.60;99.90;;;;;;5001177;28;20231;-83
2021/03/22 12:28:54;;;;;;;0.60;0.50;;;10.40;98.60;;;;;;5006837;28;20252;-84
2021/03/22 12:31:37;;;;;;;0.77;0.60;;;10.10;98.10;;;;;;5005106;28;20189;-83
2021/03/22 12:34:06;;;;;;;0.90;0.67;;;10.10;98.40;;;;;;5023634;28;20183;-84
2021/03/22 12:36:34;;;;;;;0.40;0.40;;;10.20;99.30;;;;;;5007498;28;20294;-83
2021/03/22 12:39:02;;;;;;;1.17;0.40;;;10.40;99.80;;;;;;5023210;28;20201;-77
2021/03/22 12:41:32;;;;;;;1.30;0.80;;;10.30;99.90;;;;;;5005125;28;20190;-78
2021/03/22 12:43:59;;;;;;;2.23;0.57;;;10.30;98.00;;;;;;5004898;28;20175;-78
2021/03/22 12:46:26;;;;;;;1.63;1.10;;;10.30;97.80;;;;;;5023423;28;20240;-78
2021/03/22 12:48:52;;;;;;;0.53;0.53;;;10.40;98.70;;;;;;5005170;28;20248;-79
2021/03/22 12:51:19;;;;;;;0.93;0.67;;;10.60;98.20;;;;;;5022731;28;20658;-76
2021/03/22 12:53:44;;;;;;;1.13;0.80;;;10.60;98.40;;;;;;5004989;28;20202;-77
2021/03/22 12:56:14;;;;;;;0.83;0.73;;;10.70;97.30;;;;;;5022361;28;21034;-78
2021/03/22 12:58:41;;;;;;;0.67;0.40;;;10.80;95.40;;;;;;5022916;28;20183;-78
2021/03/22 13:01:07;;;;;;;1.97;0.67;;;10.70;95.30;;;;;;5022643;28;20528;-77
2021/03/22 13:03:33;;;;;;;2.83;0.83;;;10.60;96.40;;;;;;5025678;28;20759;-78
2021/03/22 13:05:59;;;;;;;1.40;0.70;;;10.70;95.70;;;;;;5026059;28;20203;-80
2021/03/22 13:08:27;;;;;;;2.60;0.70;;;10.70;96.70;;;;;;5008687;28;20190;-76
2021/03/22 13:10:54;;;;;;;1.53;0.90;;;10.30;94.70;;;;;;5025175;28;20207;-78
2021/03/22 13:13:19;;;;;;;0.77;0.70;;;10.00;94.60;;;;;;5008038;28;20845;-80
2021/03/22 13:15:49;;;;;;;0.60;0.50;;;9.90;95.00;;;;;;5007734;28;20206;-76
2021/03/22 13:18:20;;;;;;;0.50;0.50;;;10.00;94.90;;;;;;5025215;28;20171;-76
2021/03/22 13:20:49;;;;;;;1.17;0.67;;;10.00;95.90;;;;;;5007278;28;21203;-78
2021/03/22 13:23:17;;;;;;;1.30;1.07;;;10.10;98.30;;;;;;5024450;28;20182;-76
2021/03/22 13:25:43;;;;;;;1.40;1.10;;;10.50;98.40;;;;;;5025694;28;20194;-84
2021/03/22 13:28:15;;;;;;;1.20;1.00;;;11.00;98.50;;;;;;5008172;28;20194;-84
2021/03/22 13:30:41;;;;;;;1.63;0.73;;;10.80;99.50;;;;;;5008794;28;20270;-86